sensor_id;sensor_type;location;lat;lon;timestamp;P1;durP1;ratioP1;P2;durP2;ratioP2
17398;SDS011;8817;48.170;8.592;2022-09-13T00:01:44;3.53;;;3.17;;
17398;SDS011;8817;48.170;8.592;2022-09-13T00:04:12;3.20;;;3.10;;
17398;SDS011;8817;48.170;8.592;2022-09-13T00:06:39;3.70;;;3.50;;
17398;SDS011;8817;48.170;8.592;2022-09-13T00:09:06;4.47;;;3.45;;
17398;SDS011;8817;48.170;8.592;2022-09-13T00:11:33;3.35;;;3.17;;
17398;SDS011;8817;48.170;8.592;2022-09-13T00:14:00;3.22;;;3.03;;
17398;SDS011;8817;48.170;8.592;2022-09-13T00:16:28;3.20;;;3.10;;
17398;SDS011;8817;48.170;8.592;2022-09-13T00:18:56;3.10;;;3.00;;
17398;SDS011;8817;48.170;8.592;2022-09-13T00:21:25;3.35;;;3.10;;
17398;SDS011;8817;48.170;8.592;2022-09-13T00:23:53;2.78;;;2.72;;
17398;SDS011;8817;48.170;8.592;2022-09-13T00:26:21;3.42;;;3.28;;
17398;SDS011;8817;48.170;8.592;2022-09-13T00:28:49;3.53;;;3.25;;
17398;SDS011;8817;48.170;8.592;2022-09-13T00:31:16;3.00;;;2.90;;
17398;SDS011;8817;48.170;8.592;2022-09-13T00:33:44;3.28;;;3.15;;
17398;SDS011;8817;48.170;8.592;2022-09-13T00:36:11;3.35;;;3.22;;
17398;SDS011;8817;48.170;8.592;2022-09-13T00:38:41;3.10;;;3.00;;
17398;SDS011;8817;48.170;8.592;2022-09-13T00:41:10;3.40;;;3.20;;
17398;SDS011;8817;48.170;8.592;2022-09-13T00:43:40;3.13;;;2.92;;
17398;SDS011;8817;48.170;8.592;2022-09-13T00:46:10;5.10;;;3.17;;
17398;SDS011;8817;48.170;8.592;2022-09-13T00:48:39;3.42;;;3.13;;
17398;SDS011;8817;48.170;8.592;2022-09-13T00:51:07;3.45;;;3.20;;
17398;SDS011;8817;48.170;8.592;2022-09-13T00:53:36;3.00;;;2.90;;
17398;SDS011;8817;48.170;8.592;2022-09-13T00:56:10;4.35;;;3.40;;
17398;SDS011;8817;48.170;8.592;2022-09-13T00:58:41;4.03;;;3.10;;
17398;SDS011;8817;48.170;8.592;2022-09-13T01:01:15;3.15;;;3.05;;
17398;SDS011;8817;48.170;8.592;2022-09-13T01:03:44;3.33;;;3.08;;
17398;SDS011;8817;48.170;8.592;2022-09-13T01:06:13;3.05;;;2.95;;
17398;SDS011;8817;48.170;8.592;2022-09-13T01:08:44;3.10;;;3.00;;
17398;SDS011;8817;48.170;8.592;2022-09-13T01:11:17;4.88;;;3.25;;
17398;SDS011;8817;48.170;8.592;2022-09-13T01:13:51;3.22;;;3.03;;
17398;SDS011;8817;48.170;8.592;2022-09-13T01:16:19;3.05;;;2.85;;
17398;SDS011;8817;48.170;8.592;2022-09-13T01:18:46;3.42;;;3.22;;
17398;SDS011;8817;48.170;8.592;2022-09-13T01:24:17;3.30;;;3.00;;
17398;SDS011;8817;48.170;8.592;2022-09-13T01:27:20;3.30;;;3.10;;
17398;SDS011;8817;48.170;8.592;2022-09-13T01:30:03;3.40;;;3.20;;
17398;SDS011;8817;48.170;8.592;2022-09-13T01:32:37;3.08;;;2.90;;
17398;SDS011;8817;48.170;8.592;2022-09-13T01:35:30;2.97;;;2.88;;
17398;SDS011;8817;48.170;8.592;2022-09-13T01:38:09;2.92;;;2.72;;
17398;SDS011;8817;48.170;8.592;2022-09-13T01:40:49;3.03;;;2.92;;
17398;SDS011;8817;48.170;8.592;2022-09-13T01:43:25;3.00;;;2.90;;
17398;SDS011;8817;48.170;8.592;2022-09-13T01:46:04;3.20;;;3.00;;
17398;SDS011;8817;48.170;8.592;2022-09-13T01:48:38;3.45;;;3.25;;
17398;SDS011;8817;48.170;8.592;2022-09-13T01:51:19;3.50;;;3.20;;
17398;SDS011;8817;48.170;8.592;2022-09-13T01:53:53;3.20;;;3.10;;
17398;SDS011;8817;48.170;8.592;2022-09-13T01:56:31;3.22;;;3.13;;
17398;SDS011;8817;48.170;8.592;2022-09-13T01:59:04;3.33;;;3.13;;
17398;SDS011;8817;48.170;8.592;2022-09-13T02:01:38;3.72;;;3.20;;
17398;SDS011;8817;48.170;8.592;2022-09-13T02:04:13;3.25;;;3.08;;
17398;SDS011;8817;48.170;8.592;2022-09-13T02:06:44;3.08;;;2.90;;
17398;SDS011;8817;48.170;8.592;2022-09-13T02:09:16;3.78;;;3.10;;
17398;SDS011;8817;48.170;8.592;2022-09-13T02:11:48;3.30;;;3.10;;
17398;SDS011;8817;48.170;8.592;2022-09-13T02:14:20;4.38;;;3.22;;
17398;SDS011;8817;48.170;8.592;2022-09-13T02:16:51;3.45;;;3.20;;
17398;SDS011;8817;48.170;8.592;2022-09-13T02:19:24;3.47;;;3.17;;
17398;SDS011;8817;48.170;8.592;2022-09-13T02:21:53;3.45;;;3.25;;
17398;SDS011;8817;48.170;8.592;2022-09-13T02:24:25;3.60;;;3.30;;
17398;SDS011;8817;48.170;8.592;2022-09-13T02:26:57;3.53;;;3.33;;
17398;SDS011;8817;48.170;8.592;2022-09-13T02:29:28;3.40;;;3.20;;
17398;SDS011;8817;48.170;8.592;2022-09-13T02:31:59;3.75;;;3.55;;
17398;SDS011;8817;48.170;8.592;2022-09-13T02:34:32;3.60;;;3.40;;
17398;SDS011;8817;48.170;8.592;2022-09-13T02:37:03;3.65;;;3.22;;
17398;SDS011;8817;48.170;8.592;2022-09-13T02:39:32;3.55;;;3.35;;
17398;SDS011;8817;48.170;8.592;2022-09-13T02:42:04;3.80;;;3.50;;
17398;SDS011;8817;48.170;8.592;2022-09-13T02:44:37;6.78;;;3.35;;
17398;SDS011;8817;48.170;8.592;2022-09-13T02:47:10;3.72;;;3.50;;
17398;SDS011;8817;48.170;8.592;2022-09-13T02:49:53;3.95;;;3.67;;
17398;SDS011;8817;48.170;8.592;2022-09-13T02:52:27;3.60;;;3.40;;
17398;SDS011;8817;48.170;8.592;2022-09-13T02:55:03;3.72;;;3.53;;
17398;SDS011;8817;48.170;8.592;2022-09-13T02:57:39;3.60;;;3.40;;
17398;SDS011;8817;48.170;8.592;2022-09-13T03:00:14;3.85;;;3.53;;
17398;SDS011;8817;48.170;8.592;2022-09-13T03:02:42;3.75;;;3.55;;
17398;SDS011;8817;48.170;8.592;2022-09-13T03:05:12;4.10;;;3.80;;
17398;SDS011;8817;48.170;8.592;2022-09-13T03:07:39;4.03;;;3.75;;
17398;SDS011;8817;48.170;8.592;2022-09-13T03:10:06;4.05;;;3.75;;
17398;SDS011;8817;48.170;8.592;2022-09-13T03:12:40;4.78;;;3.55;;
17398;SDS011;8817;48.170;8.592;2022-09-13T03:15:29;3.60;;;3.42;;
17398;SDS011;8817;48.170;8.592;2022-09-13T03:18:07;3.90;;;3.65;;
17398;SDS011;8817;48.170;8.592;2022-09-13T03:20:45;3.60;;;3.40;;
17398;SDS011;8817;48.170;8.592;2022-09-13T03:23:25;3.90;;;3.60;;
17398;SDS011;8817;48.170;8.592;2022-09-13T03:26:05;3.60;;;3.40;;
17398;SDS011;8817;48.170;8.592;2022-09-13T03:28:44;4.22;;;3.80;;
17398;SDS011;8817;48.170;8.592;2022-09-13T03:31:22;3.80;;;3.55;;
17398;SDS011;8817;48.170;8.592;2022-09-13T03:33:58;3.95;;;3.70;;
17398;SDS011;8817;48.170;8.592;2022-09-13T03:36:33;3.60;;;3.40;;
17398;SDS011;8817;48.170;8.592;2022-09-13T03:39:05;4.65;;;3.88;;
17398;SDS011;8817;48.170;8.592;2022-09-13T03:41:38;3.80;;;3.50;;
17398;SDS011;8817;48.170;8.592;2022-09-13T03:44:09;4.20;;;3.90;;
17398;SDS011;8817;48.170;8.592;2022-09-13T03:46:40;3.67;;;3.47;;
17398;SDS011;8817;48.170;8.592;2022-09-13T03:49:12;3.83;;;3.63;;
17398;SDS011;8817;48.170;8.592;2022-09-13T03:51:41;3.97;;;3.67;;
17398;SDS011;8817;48.170;8.592;2022-09-13T03:54:10;4.20;;;3.80;;
17398;SDS011;8817;48.170;8.592;2022-09-13T03:56:41;4.07;;;3.78;;
17398;SDS011;8817;48.170;8.592;2022-09-13T03:59:08;4.32;;;3.90;;
17398;SDS011;8817;48.170;8.592;2022-09-13T04:01:35;4.45;;;4.00;;
17398;SDS011;8817;48.170;8.592;2022-09-13T04:04:02;6.57;;;3.83;;
17398;SDS011;8817;48.170;8.592;2022-09-13T04:06:30;4.90;;;4.18;;
17398;SDS011;8817;48.170;8.592;2022-09-13T04:08:57;4.85;;;4.40;;
17398;SDS011;8817;48.170;8.592;2022-09-13T04:11:25;4.70;;;4.28;;
17398;SDS011;8817;48.170;8.592;2022-09-13T04:13:54;4.15;;;3.85;;
17398;SDS011;8817;48.170;8.592;2022-09-13T04:16:21;4.25;;;3.95;;
17398;SDS011;8817;48.170;8.592;2022-09-13T04:18:48;4.00;;;3.80;;
17398;SDS011;8817;48.170;8.592;2022-09-13T04:21:15;4.30;;;4.00;;
17398;SDS011;8817;48.170;8.592;2022-09-13T04:23:43;4.30;;;3.90;;
17398;SDS011;8817;48.170;8.592;2022-09-13T04:26:15;4.13;;;3.83;;
17398;SDS011;8817;48.170;8.592;2022-09-13T04:28:42;4.20;;;3.88;;
17398;SDS011;8817;48.170;8.592;2022-09-13T04:31:09;4.20;;;4.00;;
17398;SDS011;8817;48.170;8.592;2022-09-13T04:33:36;4.10;;;3.90;;
17398;SDS011;8817;48.170;8.592;2022-09-13T04:36:03;4.20;;;3.90;;
17398;SDS011;8817;48.170;8.592;2022-09-13T04:38:30;4.53;;;4.13;;
17398;SDS011;8817;48.170;8.592;2022-09-13T04:40:58;4.72;;;4.32;;
17398;SDS011;8817;48.170;8.592;2022-09-13T04:43:25;4.68;;;4.38;;
17398;SDS011;8817;48.170;8.592;2022-09-13T04:45:52;4.78;;;4.47;;
17398;SDS011;8817;48.170;8.592;2022-09-13T04:48:19;4.60;;;4.30;;
17398;SDS011;8817;48.170;8.592;2022-09-13T04:50:46;4.38;;;4.07;;
17398;SDS011;8817;48.170;8.592;2022-09-13T04:53:13;4.40;;;4.20;;
17398;SDS011;8817;48.170;8.592;2022-09-13T04:55:40;4.63;;;4.13;;
17398;SDS011;8817;48.170;8.592;2022-09-13T04:58:08;4.68;;;4.35;;
17398;SDS011;8817;48.170;8.592;2022-09-13T05:00:36;4.72;;;4.38;;
17398;SDS011;8817;48.170;8.592;2022-09-13T05:03:03;4.30;;;4.10;;
17398;SDS011;8817;48.170;8.592;2022-09-13T05:05:29;4.38;;;4.10;;
17398;SDS011;8817;48.170;8.592;2022-09-13T05:07:57;4.05;;;3.85;;
17398;SDS011;8817;48.170;8.592;2022-09-13T05:10:24;4.60;;;4.30;;
17398;SDS011;8817;48.170;8.592;2022-09-13T05:12:52;4.30;;;4.10;;
17398;SDS011;8817;48.170;8.592;2022-09-13T05:15:20;4.10;;;3.90;;
17398;SDS011;8817;48.170;8.592;2022-09-13T05:17:47;4.65;;;4.18;;
17398;SDS011;8817;48.170;8.592;2022-09-13T05:20:14;4.50;;;4.20;;
17398;SDS011;8817;48.170;8.592;2022-09-13T05:22:41;4.65;;;4.35;;
17398;SDS011;8817;48.170;8.592;2022-09-13T05:25:08;5.25;;;4.07;;
17398;SDS011;8817;48.170;8.592;2022-09-13T05:27:35;4.32;;;4.13;;
17398;SDS011;8817;48.170;8.592;2022-09-13T05:30:02;4.25;;;4.05;;
17398;SDS011;8817;48.170;8.592;2022-09-13T05:32:31;4.30;;;4.00;;
17398;SDS011;8817;48.170;8.592;2022-09-13T05:34:58;4.60;;;4.30;;
17398;SDS011;8817;48.170;8.592;2022-09-13T05:37:25;4.43;;;4.00;;
17398;SDS011;8817;48.170;8.592;2022-09-13T05:39:52;4.40;;;4.20;;
17398;SDS011;8817;48.170;8.592;2022-09-13T05:42:19;4.38;;;4.18;;
17398;SDS011;8817;48.170;8.592;2022-09-13T05:44:46;5.00;;;4.50;;
17398;SDS011;8817;48.170;8.592;2022-09-13T05:47:13;6.68;;;4.45;;
17398;SDS011;8817;48.170;8.592;2022-09-13T05:49:41;4.75;;;4.35;;
17398;SDS011;8817;48.170;8.592;2022-09-13T05:52:08;4.50;;;4.20;;
17398;SDS011;8817;48.170;8.592;2022-09-13T05:54:35;4.40;;;4.20;;
17398;SDS011;8817;48.170;8.592;2022-09-13T05:57:02;4.28;;;4.03;;
17398;SDS011;8817;48.170;8.592;2022-09-13T05:59:29;4.63;;;4.30;;
17398;SDS011;8817;48.170;8.592;2022-09-13T06:01:57;4.75;;;4.38;;
17398;SDS011;8817;48.170;8.592;2022-09-13T06:04:23;4.63;;;4.28;;
17398;SDS011;8817;48.170;8.592;2022-09-13T06:06:52;4.40;;;4.10;;
17398;SDS011;8817;48.170;8.592;2022-09-13T06:09:19;4.53;;;4.22;;
17398;SDS011;8817;48.170;8.592;2022-09-13T06:11:45;4.65;;;4.35;;
17398;SDS011;8817;48.170;8.592;2022-09-13T06:14:12;5.10;;;4.60;;
17398;SDS011;8817;48.170;8.592;2022-09-13T06:16:39;4.30;;;4.00;;
17398;SDS011;8817;48.170;8.592;2022-09-13T06:19:06;4.43;;;4.20;;
17398;SDS011;8817;48.170;8.592;2022-09-13T06:21:34;4.70;;;4.30;;
17398;SDS011;8817;48.170;8.592;2022-09-13T06:24:02;4.70;;;4.30;;
17398;SDS011;8817;48.170;8.592;2022-09-13T06:26:29;4.55;;;4.35;;
17398;SDS011;8817;48.170;8.592;2022-09-13T06:28:57;4.50;;;4.30;;
17398;SDS011;8817;48.170;8.592;2022-09-13T06:31:25;4.47;;;4.25;;
17398;SDS011;8817;48.170;8.592;2022-09-13T06:33:55;4.45;;;4.13;;
17398;SDS011;8817;48.170;8.592;2022-09-13T06:36:24;4.57;;;4.28;;
17398;SDS011;8817;48.170;8.592;2022-09-13T06:38:51;7.32;;;4.43;;
17398;SDS011;8817;48.170;8.592;2022-09-13T06:41:20;4.60;;;4.40;;
17398;SDS011;8817;48.170;8.592;2022-09-13T06:43:51;4.85;;;4.50;;
17398;SDS011;8817;48.170;8.592;2022-09-13T06:46:19;5.15;;;4.80;;
17398;SDS011;8817;48.170;8.592;2022-09-13T06:48:46;5.07;;;4.70;;
17398;SDS011;8817;48.170;8.592;2022-09-13T06:51:14;5.25;;;4.75;;
17398;SDS011;8817;48.170;8.592;2022-09-13T06:53:43;5.07;;;4.68;;
17398;SDS011;8817;48.170;8.592;2022-09-13T06:56:11;5.43;;;5.03;;
17398;SDS011;8817;48.170;8.592;2022-09-13T06:58:42;5.07;;;4.78;;
17398;SDS011;8817;48.170;8.592;2022-09-13T07:01:11;4.80;;;4.55;;
17398;SDS011;8817;48.170;8.592;2022-09-13T07:03:40;4.95;;;4.65;;
17398;SDS011;8817;48.170;8.592;2022-09-13T07:06:09;6.47;;;5.20;;
17398;SDS011;8817;48.170;8.592;2022-09-13T07:08:38;5.30;;;4.90;;
17398;SDS011;8817;48.170;8.592;2022-09-13T07:11:05;5.75;;;4.97;;
17398;SDS011;8817;48.170;8.592;2022-09-13T07:13:33;4.95;;;4.65;;
17398;SDS011;8817;48.170;8.592;2022-09-13T07:16:03;5.40;;;4.90;;
17398;SDS011;8817;48.170;8.592;2022-09-13T07:18:31;5.10;;;4.78;;
17398;SDS011;8817;48.170;8.592;2022-09-13T07:20:59;7.13;;;4.68;;
17398;SDS011;8817;48.170;8.592;2022-09-13T07:23:27;5.05;;;4.68;;
17398;SDS011;8817;48.170;8.592;2022-09-13T07:25:55;4.78;;;4.47;;
17398;SDS011;8817;48.170;8.592;2022-09-13T07:28:26;4.90;;;4.60;;
17398;SDS011;8817;48.170;8.592;2022-09-13T07:30:54;4.85;;;4.55;;
17398;SDS011;8817;48.170;8.592;2022-09-13T07:33:24;4.93;;;4.63;;
17398;SDS011;8817;48.170;8.592;2022-09-13T07:35:54;5.25;;;4.85;;
17398;SDS011;8817;48.170;8.592;2022-09-13T07:38:21;5.10;;;4.70;;
17398;SDS011;8817;48.170;8.592;2022-09-13T07:40:52;5.13;;;4.78;;
17398;SDS011;8817;48.170;8.592;2022-09-13T07:43:20;4.80;;;4.50;;
17398;SDS011;8817;48.170;8.592;2022-09-13T07:45:47;4.70;;;4.40;;
17398;SDS011;8817;48.170;8.592;2022-09-13T07:48:14;4.78;;;4.47;;
17398;SDS011;8817;48.170;8.592;2022-09-13T07:50:42;5.18;;;4.82;;
17398;SDS011;8817;48.170;8.592;2022-09-13T07:53:09;5.47;;;5.07;;
17398;SDS011;8817;48.170;8.592;2022-09-13T07:55:36;4.75;;;4.55;;
17398;SDS011;8817;48.170;8.592;2022-09-13T07:58:03;5.63;;;4.85;;
17398;SDS011;8817;48.170;8.592;2022-09-13T08:00:30;4.75;;;4.45;;
17398;SDS011;8817;48.170;8.592;2022-09-13T08:02:57;5.10;;;4.80;;
17398;SDS011;8817;48.170;8.592;2022-09-13T08:05:24;5.57;;;4.38;;
17398;SDS011;8817;48.170;8.592;2022-09-13T08:07:52;4.80;;;4.60;;
17398;SDS011;8817;48.170;8.592;2022-09-13T08:10:19;4.63;;;4.30;;
17398;SDS011;8817;48.170;8.592;2022-09-13T08:12:46;4.95;;;4.55;;
17398;SDS011;8817;48.170;8.592;2022-09-13T08:15:13;6.20;;;4.60;;
17398;SDS011;8817;48.170;8.592;2022-09-13T08:17:40;6.63;;;4.78;;
17398;SDS011;8817;48.170;8.592;2022-09-13T08:20:07;4.40;;;4.20;;
17398;SDS011;8817;48.170;8.592;2022-09-13T08:22:34;4.95;;;4.60;;
17398;SDS011;8817;48.170;8.592;2022-09-13T08:25:03;4.43;;;4.22;;
17398;SDS011;8817;48.170;8.592;2022-09-13T08:27:30;4.43;;;4.20;;
17398;SDS011;8817;48.170;8.592;2022-09-13T08:29:57;4.53;;;4.20;;
17398;SDS011;8817;48.170;8.592;2022-09-13T08:32:24;4.50;;;4.20;;
17398;SDS011;8817;48.170;8.592;2022-09-13T08:34:51;4.53;;;4.22;;
17398;SDS011;8817;48.170;8.592;2022-09-13T08:37:18;8.35;;;4.50;;
17398;SDS011;8817;48.170;8.592;2022-09-13T08:39:45;4.43;;;4.15;;
17398;SDS011;8817;48.170;8.592;2022-09-13T08:42:18;4.60;;;4.30;;
17398;SDS011;8817;48.170;8.592;2022-09-13T08:44:55;4.47;;;4.22;;
17398;SDS011;8817;48.170;8.592;2022-09-13T08:47:34;4.63;;;4.30;;
17398;SDS011;8817;48.170;8.592;2022-09-13T08:50:10;5.13;;;4.68;;
17398;SDS011;8817;48.170;8.592;2022-09-13T08:52:47;4.65;;;4.45;;
17398;SDS011;8817;48.170;8.592;2022-09-13T08:55:32;5.07;;;4.50;;
17398;SDS011;8817;48.170;8.592;2022-09-13T08:58:13;4.90;;;4.50;;
17398;SDS011;8817;48.170;8.592;2022-09-13T09:01:02;4.85;;;4.60;;
17398;SDS011;8817;48.170;8.592;2022-09-13T09:03:35;5.05;;;4.65;;
17398;SDS011;8817;48.170;8.592;2022-09-13T09:06:11;4.50;;;4.30;;
17398;SDS011;8817;48.170;8.592;2022-09-13T09:08:41;5.00;;;4.60;;
17398;SDS011;8817;48.170;8.592;2022-09-13T09:11:13;4.88;;;4.47;;
17398;SDS011;8817;48.170;8.592;2022-09-13T09:13:53;5.03;;;4.55;;
17398;SDS011;8817;48.170;8.592;2022-09-13T09:16:27;4.60;;;4.40;;
17398;SDS011;8817;48.170;8.592;2022-09-13T09:19:03;4.60;;;4.40;;
17398;SDS011;8817;48.170;8.592;2022-09-13T09:21:39;4.63;;;4.30;;
17398;SDS011;8817;48.170;8.592;2022-09-13T09:24:08;4.88;;;4.68;;
17398;SDS011;8817;48.170;8.592;2022-09-13T09:26:41;4.45;;;4.15;;
17398;SDS011;8817;48.170;8.592;2022-09-13T09:29:12;4.75;;;4.35;;
17398;SDS011;8817;48.170;8.592;2022-09-13T09:31:49;4.20;;;4.10;;
17398;SDS011;8817;48.170;8.592;2022-09-13T09:34:25;5.28;;;4.40;;
17398;SDS011;8817;48.170;8.592;2022-09-13T09:37:07;4.53;;;4.30;;
17398;SDS011;8817;48.170;8.592;2022-09-13T09:39:41;4.50;;;4.30;;
17398;SDS011;8817;48.170;8.592;2022-09-13T09:42:10;4.00;;;3.90;;
17398;SDS011;8817;48.170;8.592;2022-09-13T09:44:43;4.25;;;4.10;;
17398;SDS011;8817;48.170;8.592;2022-09-13T09:47:15;4.40;;;4.20;;
17398;SDS011;8817;48.170;8.592;2022-09-13T09:49:45;4.10;;;4.00;;
17398;SDS011;8817;48.170;8.592;2022-09-13T09:52:32;4.40;;;4.10;;
17398;SDS011;8817;48.170;8.592;2022-09-13T09:55:15;3.92;;;3.83;;
17398;SDS011;8817;48.170;8.592;2022-09-13T09:57:54;4.32;;;4.00;;
17398;SDS011;8817;48.170;8.592;2022-09-13T10:00:24;3.97;;;3.88;;
17398;SDS011;8817;48.170;8.592;2022-09-13T10:02:55;3.80;;;3.70;;
17398;SDS011;8817;48.170;8.592;2022-09-13T10:05:25;3.83;;;3.70;;
17398;SDS011;8817;48.170;8.592;2022-09-13T10:07:55;3.88;;;3.78;;
17398;SDS011;8817;48.170;8.592;2022-09-13T10:10:25;3.50;;;3.40;;
17398;SDS011;8817;48.170;8.592;2022-09-13T10:13:00;3.50;;;3.40;;
17398;SDS011;8817;48.170;8.592;2022-09-13T10:15:31;4.13;;;3.83;;
17398;SDS011;8817;48.170;8.592;2022-09-13T10:20:42;3.75;;;3.65;;
17398;SDS011;8817;48.170;8.592;2022-09-13T10:23:26;3.80;;;3.70;;
17398;SDS011;8817;48.170;8.592;2022-09-13T10:26:00;3.90;;;3.80;;
17398;SDS011;8817;48.170;8.592;2022-09-13T10:28:31;3.78;;;3.67;;
17398;SDS011;8817;48.170;8.592;2022-09-13T10:31:03;3.63;;;3.53;;
17398;SDS011;8817;48.170;8.592;2022-09-13T10:33:33;3.65;;;3.55;;
17398;SDS011;8817;48.170;8.592;2022-09-13T10:36:03;3.90;;;3.80;;
17398;SDS011;8817;48.170;8.592;2022-09-13T10:38:33;3.80;;;3.70;;
17398;SDS011;8817;48.170;8.592;2022-09-13T10:41:03;4.05;;;3.95;;
17398;SDS011;8817;48.170;8.592;2022-09-13T10:43:33;4.15;;;3.80;;
17398;SDS011;8817;48.170;8.592;2022-09-13T10:46:03;3.50;;;3.50;;
17398;SDS011;8817;48.170;8.592;2022-09-13T10:48:43;3.90;;;3.60;;
17398;SDS011;8817;48.170;8.592;2022-09-13T10:51:19;4.45;;;4.20;;
17398;SDS011;8817;48.170;8.592;2022-09-13T10:54:11;4.20;;;4.10;;
17398;SDS011;8817;48.170;8.592;2022-09-13T10:56:44;3.53;;;3.42;;
17398;SDS011;8817;48.170;8.592;2022-09-13T10:59:15;3.58;;;3.50;;
17398;SDS011;8817;48.170;8.592;2022-09-13T11:01:48;3.60;;;3.60;;
17398;SDS011;8817;48.170;8.592;2022-09-13T11:04:55;3.55;;;3.35;;
17398;SDS011;8817;48.170;8.592;2022-09-13T11:10:45;3.72;;;3.63;;
17398;SDS011;8817;48.170;8.592;2022-09-13T11:13:27;3.60;;;3.50;;
17398;SDS011;8817;48.170;8.592;2022-09-13T11:16:04;3.80;;;3.70;;
17398;SDS011;8817;48.170;8.592;2022-09-13T11:18:44;3.80;;;3.70;;
17398;SDS011;8817;48.170;8.592;2022-09-13T11:21:23;3.80;;;3.80;;
17398;SDS011;8817;48.170;8.592;2022-09-13T11:24:07;4.00;;;3.90;;
17398;SDS011;8817;48.170;8.592;2022-09-13T11:26:54;4.20;;;4.10;;
17398;SDS011;8817;48.170;8.592;2022-09-13T11:29:28;3.70;;;3.60;;
17398;SDS011;8817;48.170;8.592;2022-09-13T11:32:07;4.03;;;3.92;;
17398;SDS011;8817;48.170;8.592;2022-09-13T11:34:48;3.70;;;3.70;;
17398;SDS011;8817;48.170;8.592;2022-09-13T11:37:33;3.90;;;3.80;;
17398;SDS011;8817;48.170;8.592;2022-09-13T11:40:22;3.90;;;3.80;;
17398;SDS011;8817;48.170;8.592;2022-09-13T11:42:58;3.90;;;3.80;;
17398;SDS011;8817;48.170;8.592;2022-09-13T11:45:33;3.97;;;3.65;;
17398;SDS011;8817;48.170;8.592;2022-09-13T11:48:10;3.80;;;3.70;;
17398;SDS011;8817;48.170;8.592;2022-09-13T11:50:51;3.60;;;3.60;;
17398;SDS011;8817;48.170;8.592;2022-09-13T11:56:22;3.80;;;3.60;;
17398;SDS011;8817;48.170;8.592;2022-09-13T11:58:58;3.80;;;3.78;;
17398;SDS011;8817;48.170;8.592;2022-09-13T12:01:36;4.07;;;3.97;;
17398;SDS011;8817;48.170;8.592;2022-09-13T12:04:11;4.10;;;4.00;;
17398;SDS011;8817;48.170;8.592;2022-09-13T12:06:49;4.32;;;3.90;;
17398;SDS011;8817;48.170;8.592;2022-09-13T12:09:21;6.70;;;3.70;;
17398;SDS011;8817;48.170;8.592;2022-09-13T12:11:53;4.50;;;4.30;;
17398;SDS011;8817;48.170;8.592;2022-09-13T12:14:29;4.20;;;4.10;;
17398;SDS011;8817;48.170;8.592;2022-09-13T12:17:09;4.50;;;4.40;;
17398;SDS011;8817;48.170;8.592;2022-09-13T12:19:43;3.95;;;3.90;;
17398;SDS011;8817;48.170;8.592;2022-09-13T12:22:15;4.13;;;4.03;;
17398;SDS011;8817;48.170;8.592;2022-09-13T12:24:44;4.20;;;4.10;;
17398;SDS011;8817;48.170;8.592;2022-09-13T12:27:16;4.15;;;4.05;;
17398;SDS011;8817;48.170;8.592;2022-09-13T12:29:50;4.10;;;4.00;;
17398;SDS011;8817;48.170;8.592;2022-09-13T12:32:19;4.10;;;4.00;;
17398;SDS011;8817;48.170;8.592;2022-09-13T12:34:48;4.10;;;4.00;;
17398;SDS011;8817;48.170;8.592;2022-09-13T12:37:25;4.05;;;3.95;;
17398;SDS011;8817;48.170;8.592;2022-09-13T12:40:15;4.10;;;4.00;;
17398;SDS011;8817;48.170;8.592;2022-09-13T12:42:59;4.38;;;4.20;;
17398;SDS011;8817;48.170;8.592;2022-09-13T12:45:58;4.15;;;4.05;;
17398;SDS011;8817;48.170;8.592;2022-09-13T12:48:43;3.70;;;3.70;;
17398;SDS011;8817;48.170;8.592;2022-09-13T12:51:24;3.67;;;3.65;;
17398;SDS011;8817;48.170;8.592;2022-09-13T12:54:24;3.65;;;3.58;;
17398;SDS011;8817;48.170;8.592;2022-09-13T12:57:11;3.95;;;3.85;;
17398;SDS011;8817;48.170;8.592;2022-09-13T12:59:52;4.20;;;3.95;;
17398;SDS011;8817;48.170;8.592;2022-09-13T13:02:36;3.80;;;3.80;;
17398;SDS011;8817;48.170;8.592;2022-09-13T13:05:17;4.10;;;4.00;;
17398;SDS011;8817;48.170;8.592;2022-09-13T13:07:50;4.00;;;3.90;;
17398;SDS011;8817;48.170;8.592;2022-09-13T13:10:25;4.15;;;3.95;;
17398;SDS011;8817;48.170;8.592;2022-09-13T13:13:09;4.07;;;3.97;;
17398;SDS011;8817;48.170;8.592;2022-09-13T13:15:58;4.10;;;4.00;;
17398;SDS011;8817;48.170;8.592;2022-09-13T13:18:41;4.28;;;4.13;;
17398;SDS011;8817;48.170;8.592;2022-09-13T13:27:34;4.30;;;4.20;;
17398;SDS011;8817;48.170;8.592;2022-09-13T13:33:21;4.43;;;4.25;;
17398;SDS011;8817;48.170;8.592;2022-09-13T13:35:51;4.57;;;4.43;;
17398;SDS011;8817;48.170;8.592;2022-09-13T13:38:40;4.35;;;4.10;;
17398;SDS011;8817;48.170;8.592;2022-09-13T13:47:50;4.43;;;4.32;;
17398;SDS011;8817;48.170;8.592;2022-09-13T13:50:20;4.20;;;4.10;;
17398;SDS011;8817;48.170;8.592;2022-09-13T13:52:51;4.10;;;4.00;;
17398;SDS011;8817;48.170;8.592;2022-09-13T13:55:38;4.07;;;3.97;;
17398;SDS011;8817;48.170;8.592;2022-09-13T13:58:25;4.40;;;4.30;;
17398;SDS011;8817;48.170;8.592;2022-09-13T14:00:57;4.20;;;4.10;;
17398;SDS011;8817;48.170;8.592;2022-09-13T14:03:30;4.80;;;4.70;;
17398;SDS011;8817;48.170;8.592;2022-09-13T14:06:11;4.65;;;4.55;;
17398;SDS011;8817;48.170;8.592;2022-09-13T14:08:44;4.40;;;4.20;;
17398;SDS011;8817;48.170;8.592;2022-09-13T14:11:33;4.47;;;4.38;;
17398;SDS011;8817;48.170;8.592;2022-09-13T14:17:16;4.05;;;3.95;;
17398;SDS011;8817;48.170;8.592;2022-09-13T14:19:59;4.10;;;4.00;;
17398;SDS011;8817;48.170;8.592;2022-09-13T14:22:29;4.50;;;4.30;;
17398;SDS011;8817;48.170;8.592;2022-09-13T14:24:57;4.43;;;4.32;;
17398;SDS011;8817;48.170;8.592;2022-09-13T14:27:38;4.38;;;4.28;;
17398;SDS011;8817;48.170;8.592;2022-09-13T14:30:16;4.18;;;4.07;;
17398;SDS011;8817;48.170;8.592;2022-09-13T14:32:45;4.30;;;4.20;;
17398;SDS011;8817;48.170;8.592;2022-09-13T14:35:22;4.32;;;4.22;;
17398;SDS011;8817;48.170;8.592;2022-09-13T14:37:51;4.45;;;4.35;;
17398;SDS011;8817;48.170;8.592;2022-09-13T14:40:20;5.03;;;4.40;;
17398;SDS011;8817;48.170;8.592;2022-09-13T14:42:51;4.60;;;4.38;;
17398;SDS011;8817;48.170;8.592;2022-09-13T14:45:19;4.78;;;4.68;;
17398;SDS011;8817;48.170;8.592;2022-09-13T14:47:50;4.72;;;4.63;;
17398;SDS011;8817;48.170;8.592;2022-09-13T14:50:23;4.80;;;4.70;;
17398;SDS011;8817;48.170;8.592;2022-09-13T14:52:52;5.05;;;4.80;;
17398;SDS011;8817;48.170;8.592;2022-09-13T14:55:22;4.65;;;4.47;;
17398;SDS011;8817;48.170;8.592;2022-09-13T14:57:54;4.55;;;4.35;;
17398;SDS011;8817;48.170;8.592;2022-09-13T15:00:25;4.70;;;4.50;;
17398;SDS011;8817;48.170;8.592;2022-09-13T15:02:54;4.70;;;4.60;;
17398;SDS011;8817;48.170;8.592;2022-09-13T15:05:25;4.95;;;4.72;;
17398;SDS011;8817;48.170;8.592;2022-09-13T15:07:54;4.70;;;4.40;;
17398;SDS011;8817;48.170;8.592;2022-09-13T15:10:23;4.40;;;4.30;;
17398;SDS011;8817;48.170;8.592;2022-09-13T15:12:53;4.47;;;4.28;;
17398;SDS011;8817;48.170;8.592;2022-09-13T15:15:34;4.50;;;4.30;;
17398;SDS011;8817;48.170;8.592;2022-09-13T15:18:03;4.50;;;4.40;;
17398;SDS011;8817;48.170;8.592;2022-09-13T15:20:47;4.53;;;4.32;;
17398;SDS011;8817;48.170;8.592;2022-09-13T15:23:16;4.20;;;4.10;;
17398;SDS011;8817;48.170;8.592;2022-09-13T15:25:46;4.65;;;4.45;;
17398;SDS011;8817;48.170;8.592;2022-09-13T15:28:19;4.30;;;4.20;;
17398;SDS011;8817;48.170;8.592;2022-09-13T15:30:51;4.25;;;4.15;;
17398;SDS011;8817;48.170;8.592;2022-09-13T15:33:23;4.32;;;4.22;;
17398;SDS011;8817;48.170;8.592;2022-09-13T15:38:54;4.47;;;4.38;;
17398;SDS011;8817;48.170;8.592;2022-09-13T15:41:27;4.50;;;4.40;;
17398;SDS011;8817;48.170;8.592;2022-09-13T15:43:55;4.60;;;4.40;;
17398;SDS011;8817;48.170;8.592;2022-09-13T15:46:23;4.80;;;4.60;;
17398;SDS011;8817;48.170;8.592;2022-09-13T15:48:50;4.43;;;4.32;;
17398;SDS011;8817;48.170;8.592;2022-09-13T15:51:20;4.47;;;4.28;;
17398;SDS011;8817;48.170;8.592;2022-09-13T15:53:48;4.60;;;4.50;;
17398;SDS011;8817;48.170;8.592;2022-09-13T15:56:16;4.28;;;4.18;;
17398;SDS011;8817;48.170;8.592;2022-09-13T15:58:44;4.70;;;4.50;;
17398;SDS011;8817;48.170;8.592;2022-09-13T16:01:12;4.65;;;4.45;;
17398;SDS011;8817;48.170;8.592;2022-09-13T16:03:40;4.85;;;4.50;;
17398;SDS011;8817;48.170;8.592;2022-09-13T16:06:07;4.72;;;4.43;;